Tokuyo Maru No.15 — JD2184 — position and weather

sailwx.info

Track history (hours):
 
Tides and Currents Weather Stations Pressure Air Temp Water Temp Dewpoint Dewpoint Depression Visibility Wind Speed Wind Dir Waves Ship Positions

Tokuyo Maru No.15

Last reported at 2014-Oct-27 08:16 UTC. Time now 2014-Oct-31 07:53 UTC.
Position N 34°07' E 134°59'.

Length 66 m; draft 4.5 m.

Type: Tanker. MMSI: 431402034.

Date/timePositionNaut miles runAvg speedWind from/ knotsBaromVisibWave heightAir tempDewpointWater temp
2014-Oct-27 08:16N 34°07' E 134°59'2411.7
2014-Oct-27 06:15N 34°28' E 135°12'912.2
2014-Oct-27 05:32N 34°33' E 135°21'3 0.6
2014-Oct-27 00:32N 34°33' E 135°25'4 1.7
2014-Oct-26 22:07N 34°32' E 135°20'0 0.0
2014-Oct-26 21:31N 34°32' E 135°20'0 0.0
2014-Oct-26 20:25N 34°32' E 135°20'0 0.0
2014-Oct-26 19:31N 34°32' E 135°20'0 0.0
2014-Oct-26 18:19N 34°32' E 135°20'0 0.0
2014-Oct-26 17:31N 34°32' E 135°20'0 0.0
2014-Oct-26 16:13N 34°32' E 135°20'0 0.0
2014-Oct-26 15:31N 34°32' E 135°20'0 0.0
2014-Oct-26 14:31N 34°32' E 135°20'0 0.0
2014-Oct-26 13:13N 34°32' E 135°20'0 0.1
2014-Oct-26 12:07N 34°32' E 135°20'0 0.0
2014-Oct-26 10:31N 34°32' E 135°20'0 0.0
2014-Oct-26 09:31N 34°32' E 135°20'0 0.0
2014-Oct-26 07:13N 34°32' E 135°20'0 0.0
2014-Oct-26 04:31N 34°32' E 135°20'0 0.0
2014-Oct-26 01:19N 34°32' E 135°20'0 0.1
2014-Oct-26 00:19N 34°32' E 135°20'0 0.0
2014-Oct-25 23:31N 34°32' E 135°20'0 0.0
2014-Oct-25 22:25N 34°32' E 135°20'0 0.1
2014-Oct-25 21:30N 34°32' E 135°20'1111.6
2014-Oct-25 20:32N 34°26' E 135°09'1311.4
2014-Oct-25 19:26N 34°16' E 134°59'1011.3
2014-Oct-25 18:33N 34°06' E 135°00'  
2014-Oct-22 08:32N 34°11' E 134°59'1611.2
2014-Oct-22 07:07N 34°26' E 135°07'812.7
2014-Oct-22 06:30N 34°30' E 135°15'9 1.5
2014-Oct-22 00:23N 34°32' E 135°25'6 7.0
2014-Oct-21 23:33N 34°31' E 135°18'1811.9
2014-Oct-21 22:04N 34°20' E 135°02'611.9
2014-Oct-21 21:33N 34°14' E 134°60'  
2014-Oct-19 08:32N 34°12' E 134°59'2110.5
2014-Oct-19 06:33N 34°29' E 135°13'1010.1
2014-Oct-19 05:32N 34°32' E 135°25'0 0.1
2014-Oct-19 04:33N 34°32' E 135°25'0 0.0
2014-Oct-19 03:33N 34°32' E 135°25'0 0.0
2014-Oct-19 02:33N 34°32' E 135°25'0 0.0
2014-Oct-19 01:34N 34°32' E 135°25'0 0.0
2014-Oct-19 00:34N 34°32' E 135°25'0 0.4
2014-Oct-18 23:32N 34°33' E 135°25'9 9.2
2014-Oct-18 22:34N 34°30' E 135°15'2211.0
2014-Oct-18 20:33N 34°12' E 134°60'  
Track history (hours):
 
Tides and Currents Weather Stations Pressure Air Temp Water Temp Dewpoint Dewpoint Depression Visibility Wind Speed Wind Dir Waves Ship Positions

Tokuyo Maru No.15

Last reported at 2014-Oct-27 08:16 UTC. Time now 2014-Oct-31 07:53 UTC.
Position N 34°07' E 134°59'.

Length 66 m; draft 4.5 m.

Type: Tanker. MMSI: 431402034.

Date/timePositionNaut miles runAvg speedWind from/ knotsBaromVisibWave heightAir tempDewpointWater temp
2014-Oct-27 08:16N 34°07' E 134°59'2411.7
2014-Oct-27 06:15N 34°28' E 135°12'912.2
2014-Oct-27 05:32N 34°33' E 135°21'3 0.6
2014-Oct-27 00:32N 34°33' E 135°25'4 1.7
2014-Oct-26 22:07N 34°32' E 135°20'0 0.0
2014-Oct-26 21:31N 34°32' E 135°20'0 0.0
2014-Oct-26 20:25N 34°32' E 135°20'0 0.0
2014-Oct-26 19:31N 34°32' E 135°20'0 0.0
2014-Oct-26 18:19N 34°32' E 135°20'0 0.0
2014-Oct-26 17:31N 34°32' E 135°20'0 0.0
2014-Oct-26 16:13N 34°32' E 135°20'0 0.0
2014-Oct-26 15:31N 34°32' E 135°20'0 0.0
2014-Oct-26 14:31N 34°32' E 135°20'0 0.0
2014-Oct-26 13:13N 34°32' E 135°20'0 0.1
2014-Oct-26 12:07N 34°32' E 135°20'0 0.0
2014-Oct-26 10:31N 34°32' E 135°20'0 0.0
2014-Oct-26 09:31N 34°32' E 135°20'0 0.0
2014-Oct-26 07:13N 34°32' E 135°20'0 0.0
2014-Oct-26 04:31N 34°32' E 135°20'0 0.0
2014-Oct-26 01:19N 34°32' E 135°20'0 0.1
2014-Oct-26 00:19N 34°32' E 135°20'0 0.0
2014-Oct-25 23:31N 34°32' E 135°20'0 0.0
2014-Oct-25 22:25N 34°32' E 135°20'0 0.1
2014-Oct-25 21:30N 34°32' E 135°20'1111.6
2014-Oct-25 20:32N 34°26' E 135°09'1311.4
2014-Oct-25 19:26N 34°16' E 134°59'1011.3
2014-Oct-25 18:33N 34°06' E 135°00'  
2014-Oct-22 08:32N 34°11' E 134°59'1611.2
2014-Oct-22 07:07N 34°26' E 135°07'812.7
2014-Oct-22 06:30N 34°30' E 135°15'9 1.5
2014-Oct-22 00:23N 34°32' E 135°25'6 7.0
2014-Oct-21 23:33N 34°31' E 135°18'1811.9
2014-Oct-21 22:04N 34°20' E 135°02'611.9
2014-Oct-21 21:33N 34°14' E 134°60'  
2014-Oct-19 08:32N 34°12' E 134°59'2110.5
2014-Oct-19 06:33N 34°29' E 135°13'1010.1
2014-Oct-19 05:32N 34°32' E 135°25'0 0.1
2014-Oct-19 04:33N 34°32' E 135°25'0 0.0
2014-Oct-19 03:33N 34°32' E 135°25'0 0.0
2014-Oct-19 02:33N 34°32' E 135°25'0 0.0
2014-Oct-19 01:34N 34°32' E 135°25'0 0.0
2014-Oct-19 00:34N 34°32' E 135°25'0 0.4
2014-Oct-18 23:32N 34°33' E 135°25'9 9.2
2014-Oct-18 22:34N 34°30' E 135°15'2211.0
2014-Oct-18 20:33N 34°12' E 134°60'  

Dump ship's entire track history